createdAt,value
2022-10-21T00:01:10.531Z,16.05
2022-10-21T00:03:39.080Z,15.07
2022-10-21T00:06:09.941Z,11.32
2022-10-21T00:08:39.216Z,16.05
2022-10-21T00:11:10.605Z,16.75
2022-10-21T00:13:41.584Z,13.38
2022-10-21T00:16:12.438Z,20.65
2022-10-21T00:18:41.765Z,11.75
2022-10-21T00:21:13.746Z,17.90
2022-10-21T00:23:42.371Z,15.13
2022-10-21T00:26:12.293Z,15.07
2022-10-21T00:28:40.378Z,14.90
2022-10-21T00:31:09.685Z,17.85
2022-10-21T00:33:38.430Z,17.38
2022-10-21T00:36:08.266Z,18.00
2022-10-21T00:38:38.017Z,14.77
2022-10-21T00:41:06.336Z,15.65
2022-10-21T00:43:34.669Z,15.40
2022-10-21T00:46:06.048Z,17.27
2022-10-21T00:48:36.929Z,16.45
2022-10-21T00:51:08.276Z,12.30
2022-10-21T00:53:40.937Z,13.75
2022-10-21T00:56:15.554Z,17.85
2022-10-21T00:58:47.025Z,14.70
2022-10-21T01:01:19.156Z,15.68
2022-10-21T01:03:49.803Z,18.20
2022-10-21T01:06:21.787Z,17.00
2022-10-21T01:08:53.160Z,15.75
2022-10-21T01:11:23.430Z,18.45
2022-10-21T01:14:06.093Z,15.50
2022-10-21T01:16:44.280Z,16.05
2022-10-21T01:19:40.009Z,14.82
2022-10-21T01:22:26.482Z,14.98
2022-10-21T01:25:15.143Z,16.05
2022-10-21T01:27:53.116Z,13.50
2022-10-21T01:30:43.845Z,14.60
2022-10-21T01:33:30.759Z,17.35
2022-10-21T01:36:06.889Z,16.73
2022-10-21T01:38:43.381Z,14.57
2022-10-21T01:41:14.618Z,16.42
2022-10-21T01:43:49.348Z,18.90
2022-10-21T01:46:26.892Z,18.63
2022-10-21T01:48:59.228Z,18.73
2022-10-21T01:51:29.691Z,18.40
2022-10-21T01:54:03.817Z,16.35
2022-10-21T01:56:33.595Z,16.63
2022-10-21T01:59:05.034Z,16.95
2022-10-21T02:01:36.435Z,17.45
2022-10-21T02:04:07.076Z,19.80
2022-10-21T02:06:35.160Z,20.58
2022-10-21T02:09:03.302Z,17.92
2022-10-21T02:11:35.080Z,17.65
2022-10-21T02:14:07.651Z,14.63
2022-10-21T02:16:40.985Z,14.82
2022-10-21T02:19:15.781Z,14.95
2022-10-21T02:21:44.972Z,12.82
2022-10-21T02:24:18.644Z,19.45
2022-10-21T02:26:46.810Z,12.82
2022-10-21T02:29:15.948Z,16.40
2022-10-21T02:31:56.714Z,14.32
2022-10-21T02:34:33.123Z,17.95
2022-10-21T02:37:09.533Z,16.58
2022-10-21T02:39:42.655Z,15.15
2022-10-21T02:42:14.901Z,15.02
2022-10-21T02:44:43.332Z,14.95
2022-10-21T02:47:12.803Z,14.05
2022-10-21T02:49:40.897Z,17.65
2022-10-21T02:52:08.944Z,15.57
2022-10-21T02:54:37.197Z,15.45
2022-10-21T02:57:05.447Z,15.32
2022-10-21T02:59:33.618Z,13.77
2022-10-21T03:02:01.697Z,14.05
2022-10-21T03:04:31.455Z,13.50
2022-10-21T03:06:59.571Z,19.67
2022-10-21T03:09:27.607Z,17.13
2022-10-21T03:11:55.681Z,19.55
2022-10-21T03:14:23.737Z,15.80
2022-10-21T03:16:51.764Z,15.40
2022-10-21T03:19:19.852Z,17.08
2022-10-21T03:21:49.322Z,15.15
2022-10-21T03:24:28.051Z,18.70
2022-10-21T03:26:57.118Z,15.23
2022-10-21T03:29:25.232Z,13.02
2022-10-21T03:31:53.561Z,12.15
2022-10-21T03:34:21.681Z,13.63
2022-10-21T03:36:51.185Z,14.32
2022-10-21T03:39:19.305Z,12.95
2022-10-21T03:41:47.446Z,12.98
2022-10-21T03:44:15.466Z,20.45
2022-10-21T03:46:43.569Z,15.60
2022-10-21T03:49:20.097Z,23.00
2022-10-21T03:51:51.233Z,21.58
2022-10-21T03:54:19.714Z,13.68
2022-10-21T03:56:48.142Z,15.32
2022-10-21T03:59:16.414Z,17.05
2022-10-21T04:01:44.542Z,17.27
2022-10-21T04:04:12.810Z,16.60
2022-10-21T04:06:40.869Z,20.40
2022-10-21T04:09:10.390Z,20.88
2022-10-21T04:11:38.806Z,17.60
2022-10-21T04:14:10.253Z,19.83
2022-10-21T04:16:41.348Z,13.60
2022-10-21T04:19:09.734Z,16.50
2022-10-21T04:21:37.768Z,15.68
2022-10-21T04:24:06.313Z,14.18
2022-10-21T04:26:35.767Z,12.95
2022-10-21T04:29:04.575Z,14.93
2022-10-21T04:31:32.788Z,15.02
2022-10-21T04:34:00.956Z,13.82
2022-10-21T04:36:29.031Z,11.73
2022-10-21T04:38:57.236Z,13.32
2022-10-21T04:41:25.600Z,10.02
2022-10-21T04:43:55.125Z,18.63
2022-10-21T04:46:23.301Z,15.23
2022-10-21T04:48:51.669Z,11.93
2022-10-21T04:51:19.744Z,16.20
2022-10-21T04:53:48.079Z,18.52
2022-10-21T04:56:16.233Z,12.48
2022-10-21T04:58:44.288Z,13.43
2022-10-21T05:01:13.749Z,13.45
2022-10-21T05:03:41.866Z,12.10
2022-10-21T05:06:10.000Z,14.77
2022-10-21T05:08:38.015Z,13.82
2022-10-21T05:11:06.438Z,12.57
2022-10-21T05:13:34.943Z,14.93
2022-10-21T05:16:04.779Z,13.27
2022-10-21T05:18:34.326Z,12.65
2022-10-21T05:21:03.584Z,15.00
2022-10-21T05:23:31.912Z,21.50
2022-10-21T05:26:00.050Z,15.65
2022-10-21T05:28:28.230Z,15.50
2022-10-21T05:30:56.499Z,16.45
2022-10-21T05:33:52.293Z,15.45
2022-10-21T05:36:23.253Z,12.32
2022-10-21T05:38:52.728Z,13.20
2022-10-21T05:41:21.455Z,15.05
2022-10-21T05:43:49.603Z,13.38
2022-10-21T05:46:18.139Z,16.17
2022-10-21T05:48:49.491Z,15.93
2022-10-21T05:51:25.456Z,13.90
2022-10-21T05:53:54.344Z,14.52
2022-10-21T05:56:23.446Z,18.42
2022-10-21T05:58:52.160Z,13.40
2022-10-21T06:01:20.371Z,15.38
2022-10-21T06:03:48.876Z,12.65
2022-10-21T06:06:18.712Z,15.63
2022-10-21T06:08:46.922Z,14.00
2022-10-21T06:11:18.223Z,13.88
2022-10-21T06:13:46.748Z,15.13
2022-10-21T06:16:15.568Z,14.30
2022-10-21T06:18:44.270Z,11.82
2022-10-21T06:21:12.888Z,11.32
2022-10-21T06:23:43.112Z,11.80
2022-10-21T06:26:14.067Z,13.07
2022-10-21T06:28:43.938Z,16.05
2022-10-21T06:31:16.454Z,17.30
2022-10-21T06:33:45.275Z,21.52
2022-10-21T06:36:13.699Z,15.65
2022-10-21T06:38:45.036Z,13.40
2022-10-21T06:41:15.218Z,14.48
2022-10-21T06:43:44.175Z,13.20
2022-10-21T06:46:14.641Z,14.52
2022-10-21T06:48:43.937Z,13.10
2022-10-21T06:51:15.618Z,12.52
2022-10-21T06:53:46.584Z,14.40
2022-10-21T06:56:16.856Z,12.18
2022-10-21T06:58:48.238Z,18.33
2022-10-21T07:01:33.442Z,16.38
2022-10-21T07:04:07.369Z,12.43
2022-10-21T07:06:35.759Z,12.02
2022-10-21T07:09:05.954Z,15.57
2022-10-21T07:11:34.173Z,14.55
2022-10-21T07:14:02.841Z,10.95
2022-10-21T07:16:33.347Z,18.67
2022-10-21T07:19:01.828Z,12.60
2022-10-21T07:21:31.881Z,11.82
2022-10-21T07:24:01.162Z,12.45
2022-10-21T07:26:32.391Z,14.25
2022-10-21T07:29:01.742Z,12.25
2022-10-21T07:31:32.604Z,12.30
2022-10-21T07:34:02.271Z,12.13
2022-10-21T07:36:32.504Z,14.70
2022-10-21T07:39:03.401Z,14.98
2022-10-21T07:41:35.852Z,15.73
2022-10-21T07:44:05.148Z,13.63
2022-10-21T07:46:33.851Z,9.30
2022-10-21T07:49:02.345Z,9.90
2022-10-21T07:51:31.448Z,9.68
2022-10-21T07:54:01.644Z,12.77
2022-10-21T07:56:33.691Z,11.80
2022-10-21T07:59:03.114Z,11.23
2022-10-21T08:01:32.266Z,8.75
2022-10-21T08:04:00.979Z,9.85
2022-10-21T08:06:30.343Z,10.63
2022-10-21T08:08:58.698Z,10.18
2022-10-21T08:11:31.181Z,13.32
2022-10-21T08:14:01.351Z,12.05
2022-10-21T08:16:29.766Z,15.15
2022-10-21T08:19:00.925Z,10.70
2022-10-21T08:21:31.252Z,13.20
2022-10-21T08:24:00.258Z,11.40
2022-10-21T08:26:28.438Z,12.00
2022-10-21T08:31:33.558Z,21.73
2022-10-21T08:34:02.269Z,11.98
2022-10-21T08:36:30.567Z,11.13
2022-10-21T08:38:59.572Z,11.82
2022-10-21T08:41:49.794Z,13.38
2022-10-21T08:44:28.261Z,11.88
2022-10-21T08:47:04.598Z,13.52
2022-10-21T08:49:42.488Z,11.23
2022-10-21T08:52:16.234Z,10.98
2022-10-21T08:54:48.503Z,11.18
2022-10-21T08:57:17.943Z,14.60
2022-10-21T08:59:47.653Z,11.25
2022-10-21T09:02:30.059Z,15.60
2022-10-21T09:05:24.281Z,11.02
2022-10-21T09:08:05.175Z,16.13
2022-10-21T09:10:42.878Z,12.27
2022-10-21T09:13:16.640Z,11.27
2022-10-21T09:15:56.336Z,10.55
2022-10-21T09:18:43.356Z,12.13
2022-10-21T09:21:20.324Z,13.98
2022-10-21T09:23:54.915Z,11.63
2022-10-21T09:26:36.526Z,12.52
2022-10-21T09:29:19.825Z,11.88
2022-10-21T09:31:55.158Z,13.38
2022-10-21T09:34:39.116Z,10.68
2022-10-21T09:37:10.702Z,10.15
2022-10-21T09:39:44.012Z,12.07
2022-10-21T09:42:29.579Z,9.80
2022-10-21T09:45:02.092Z,13.20
2022-10-21T09:47:30.380Z,16.38
2022-10-21T09:50:07.379Z,9.30
2022-10-21T09:52:38.427Z,11.05
2022-10-21T09:55:13.065Z,9.85
2022-10-21T09:57:49.515Z,9.32
2022-10-21T10:00:17.808Z,7.35
2022-10-21T10:02:47.847Z,13.13
2022-10-21T10:05:36.506Z,13.27
2022-10-21T10:08:28.322Z,10.93
2022-10-21T10:11:04.442Z,15.30
2022-10-21T10:13:33.175Z,12.80
2022-10-21T10:16:22.362Z,15.45
2022-10-21T10:18:52.183Z,10.98
2022-10-21T10:21:23.644Z,14.45
2022-10-21T10:23:54.331Z,12.48
2022-10-21T10:26:27.463Z,11.75
2022-10-21T10:28:59.699Z,9.90
2022-10-21T10:31:32.270Z,12.60
2022-10-21T10:34:05.311Z,14.35
2022-10-21T10:36:37.527Z,10.88
2022-10-21T10:39:09.496Z,12.25
2022-10-21T10:41:40.854Z,14.57
2022-10-21T10:44:26.682Z,13.32
2022-10-21T10:46:57.082Z,9.80
2022-10-21T10:49:28.037Z,14.48
2022-10-21T10:52:17.937Z,12.45
2022-10-21T10:54:46.211Z,13.82
2022-10-21T10:57:17.225Z,11.40
2022-10-21T10:59:48.622Z,13.35
2022-10-21T11:02:24.659Z,11.20
2022-10-21T11:05:08.589Z,14.45
2022-10-21T11:07:44.769Z,13.48
2022-10-21T11:10:32.125Z,13.65
2022-10-21T11:13:00.740Z,13.85
2022-10-21T11:15:42.096Z,11.85
2022-10-21T11:18:26.069Z,15.15
2022-10-21T11:21:08.408Z,13.48
2022-10-21T11:23:58.828Z,15.25
2022-10-21T11:26:34.095Z,13.32
2022-10-21T11:29:10.735Z,11.75
2022-10-21T11:32:10.201Z,18.23
2022-10-21T11:34:49.827Z,11.38
2022-10-21T11:37:29.915Z,11.95
2022-10-21T11:40:09.414Z,12.50
2022-10-21T11:42:43.205Z,15.77
2022-10-21T11:45:31.524Z,9.82
2022-10-21T11:48:15.606Z,13.00
2022-10-21T11:50:51.909Z,10.80
2022-10-21T11:53:39.852Z,11.80
2022-10-21T11:56:24.428Z,12.10
2022-10-21T11:59:08.830Z,12.93
2022-10-21T12:01:49.126Z,13.35
2022-10-21T12:04:26.210Z,11.05
2022-10-21T12:07:12.078Z,18.88
2022-10-21T12:09:46.493Z,12.15
2022-10-21T12:12:18.547Z,14.35
2022-10-21T12:14:51.349Z,14.77
2022-10-21T12:17:21.828Z,15.10
2022-10-21T12:19:56.401Z,13.48
2022-10-21T12:22:27.521Z,17.00
2022-10-21T12:25:04.257Z,17.38
2022-10-21T12:27:43.086Z,17.45
2022-10-21T12:30:16.220Z,16.15
2022-10-21T12:32:54.438Z,14.85
2022-10-21T12:35:28.540Z,14.02
2022-10-21T12:38:20.822Z,14.80
2022-10-21T12:40:50.600Z,15.90
2022-10-21T12:43:28.608Z,15.02
2022-10-21T12:46:06.363Z,16.30
2022-10-21T12:48:39.249Z,15.80
2022-10-21T12:51:18.988Z,14.73
2022-10-21T12:56:30.468Z,21.77
2022-10-21T12:59:03.546Z,19.48
2022-10-21T13:01:38.829Z,22.98
2022-10-21T13:04:27.327Z,18.10
2022-10-21T13:06:58.149Z,24.08
2022-10-21T13:09:39.159Z,22.40
2022-10-21T13:12:30.920Z,17.60
2022-10-21T13:15:02.117Z,22.55
2022-10-21T13:17:52.856Z,18.45
2022-10-21T13:20:47.811Z,19.10
2022-10-21T13:23:39.959Z,23.90
2022-10-21T13:26:17.273Z,23.42
2022-10-21T13:28:58.359Z,20.25
2022-10-21T13:31:29.197Z,26.05
2022-10-21T13:33:58.258Z,24.08
2022-10-21T13:39:09.670Z,25.48
2022-10-21T13:41:38.003Z,24.10
2022-10-21T13:44:08.686Z,29.13
2022-10-21T13:46:43.421Z,22.48
2022-10-21T13:49:28.326Z,19.33
2022-10-21T13:51:56.987Z,30.95
2022-10-21T13:54:25.356Z,26.17
2022-10-21T13:56:53.697Z,25.77
2022-10-21T13:59:28.915Z,27.45
2022-10-21T14:02:00.211Z,20.60
2022-10-21T14:04:30.721Z,20.63
2022-10-21T14:07:03.714Z,23.30
2022-10-21T14:09:35.181Z,22.80
2022-10-21T14:12:06.295Z,24.85
2022-10-21T14:14:38.916Z,29.10
2022-10-21T14:17:17.226Z,22.80
2022-10-21T14:19:50.055Z,25.50
2022-10-21T14:22:21.322Z,25.27
2022-10-21T14:24:52.477Z,26.55
2022-10-21T14:27:23.775Z,29.23
2022-10-21T14:29:52.626Z,29.02
2022-10-21T14:32:24.332Z,27.33
2022-10-21T14:35:03.693Z,29.33
2022-10-21T14:37:36.468Z,26.30
2022-10-21T14:40:12.261Z,26.13
2022-10-21T14:42:42.528Z,23.80
2022-10-21T14:45:18.663Z,29.80
2022-10-21T14:47:52.673Z,27.63
2022-10-21T14:50:23.603Z,34.78
2022-10-21T14:52:53.909Z,27.42
2022-10-21T14:55:29.926Z,29.15
2022-10-21T14:58:04.493Z,30.08
2022-10-21T15:00:37.267Z,30.08
2022-10-21T15:03:07.025Z,39.08
2022-10-21T15:05:38.933Z,30.33
2022-10-21T15:08:32.106Z,35.45
2022-10-21T15:11:35.584Z,30.58
2022-10-21T15:14:20.924Z,30.67
2022-10-21T15:16:52.792Z,32.65
2022-10-21T15:19:25.925Z,30.98
2022-10-21T15:21:58.660Z,34.08
2022-10-21T15:24:35.653Z,29.50
2022-10-21T15:27:05.394Z,33.00
2022-10-21T15:29:38.307Z,32.70
2022-10-21T15:32:07.773Z,28.55
2022-10-21T15:34:37.477Z,30.67
2022-10-21T15:37:07.430Z,34.65
2022-10-21T15:39:35.722Z,33.95
2022-10-21T15:42:04.115Z,30.40
2022-10-21T15:44:33.579Z,33.10
2022-10-21T15:47:05.677Z,32.28
2022-10-21T15:49:36.509Z,35.55
2022-10-21T15:52:06.750Z,30.95
2022-10-21T15:54:35.438Z,32.85
2022-10-21T15:57:13.132Z,30.85
2022-10-21T15:59:41.590Z,31.38
2022-10-21T16:02:15.461Z,34.63
2022-10-21T16:04:45.770Z,40.75
2022-10-21T16:07:20.669Z,30.50
2022-10-21T16:09:49.199Z,40.30
2022-10-21T16:12:19.053Z,32.05
2022-10-21T16:14:47.200Z,35.15
2022-10-21T16:17:15.715Z,30.95
2022-10-21T16:19:43.824Z,35.83
2022-10-21T16:22:23.644Z,33.22
2022-10-21T16:24:51.881Z,34.55
2022-10-21T16:27:31.282Z,35.45
2022-10-21T16:30:15.428Z,31.25
2022-10-21T16:32:44.034Z,36.05
2022-10-21T16:35:12.481Z,35.13
2022-10-21T16:37:43.131Z,31.10
2022-10-21T16:40:19.737Z,36.00
2022-10-21T16:42:47.891Z,38.08
2022-10-21T16:45:17.122Z,37.47
2022-10-21T16:47:48.547Z,36.83
2022-10-21T16:50:21.873Z,37.03
2022-10-21T16:52:51.464Z,33.28
2022-10-21T16:55:19.655Z,40.38
2022-10-21T16:57:47.767Z,39.13
2022-10-21T17:00:17.998Z,37.08
2022-10-21T17:02:49.608Z,35.22
2022-10-21T17:05:18.010Z,34.00
2022-10-21T17:07:46.317Z,33.97
2022-10-21T17:10:16.081Z,37.65
2022-10-21T17:12:44.287Z,39.28
2022-10-21T17:15:15.363Z,42.38
2022-10-21T17:17:43.453Z,39.63
2022-10-21T17:20:12.420Z,43.13
2022-10-21T17:22:40.570Z,41.85
2022-10-21T17:25:11.301Z,38.90
2022-10-21T17:27:41.339Z,45.13
2022-10-21T17:30:12.250Z,44.10
2022-10-21T17:35:18.711Z,48.92
2022-10-21T17:37:47.792Z,45.65
2022-10-21T17:40:18.262Z,41.90
2022-10-21T17:42:47.998Z,46.13
2022-10-21T17:45:18.577Z,43.05
2022-10-21T17:47:46.779Z,44.83
2022-10-21T17:50:18.438Z,47.75
2022-10-21T17:52:46.532Z,46.58
2022-10-21T17:55:14.598Z,48.03
2022-10-21T17:57:42.723Z,46.85
2022-10-21T18:00:13.325Z,40.22
2022-10-21T18:02:42.060Z,42.03
2022-10-21T18:05:11.073Z,46.78
2022-10-21T18:07:39.511Z,53.78
2022-10-21T18:10:09.089Z,51.35
2022-10-21T18:12:37.692Z,36.88
2022-10-21T18:15:06.705Z,51.58
2022-10-21T18:17:37.643Z,45.80
2022-10-21T18:20:07.795Z,43.67
2022-10-21T18:22:36.135Z,46.13
2022-10-21T18:25:04.335Z,45.28
2022-10-21T18:27:32.425Z,47.25
2022-10-21T18:30:00.573Z,40.97
2022-10-21T18:32:28.953Z,40.50
2022-10-21T18:34:58.603Z,62.22
2022-10-21T18:37:26.714Z,49.63
2022-10-21T18:39:56.805Z,43.45
2022-10-21T18:42:27.045Z,46.92
2022-10-21T18:44:55.128Z,45.10
2022-10-21T18:47:23.230Z,50.08
2022-10-21T18:49:51.421Z,47.25
2022-10-21T18:52:20.894Z,45.03
2022-10-21T18:54:49.086Z,45.22
2022-10-21T18:57:17.562Z,46.50
2022-10-21T18:59:45.663Z,51.80
2022-10-21T19:02:20.600Z,39.20
2022-10-21T19:04:49.341Z,43.15
2022-10-21T19:07:18.443Z,43.22
2022-10-21T19:09:48.100Z,38.45
2022-10-21T19:12:19.659Z,44.42
2022-10-21T19:14:50.556Z,48.10
2022-10-21T19:17:19.825Z,56.80
2022-10-21T19:19:47.909Z,52.78
2022-10-21T19:22:17.460Z,42.75
2022-10-21T19:24:47.157Z,44.50
2022-10-21T19:27:15.254Z,52.08
2022-10-21T19:29:44.380Z,46.80
2022-10-21T19:32:13.491Z,42.58
2022-10-21T19:34:41.910Z,53.78
2022-10-21T19:37:10.630Z,51.42
2022-10-21T19:39:39.167Z,47.42
2022-10-21T19:42:08.569Z,46.63
2022-10-21T19:44:36.918Z,51.05
2022-10-21T19:47:05.308Z,44.30
2022-10-21T19:49:33.999Z,50.63
2022-10-21T19:52:03.225Z,44.13
2022-10-21T19:54:31.251Z,43.78
2022-10-21T19:56:59.312Z,56.58
2022-10-21T19:59:28.936Z,43.30
2022-10-21T20:01:57.050Z,49.03
2022-10-21T20:04:25.351Z,50.75
2022-10-21T20:06:53.745Z,45.20
2022-10-21T20:09:21.822Z,44.80
2022-10-21T20:11:49.770Z,51.08
2022-10-21T20:14:18.568Z,49.10
2022-10-21T20:16:50.002Z,48.92
2022-10-21T20:19:18.075Z,49.15
2022-10-21T20:21:46.228Z,49.67
2022-10-21T20:24:15.954Z,44.78
2022-10-21T20:26:45.671Z,56.25
2022-10-21T20:29:15.568Z,48.25
2022-10-21T20:31:43.973Z,44.35
2022-10-21T20:34:14.339Z,51.05
2022-10-21T20:36:42.688Z,49.53
2022-10-21T20:39:13.435Z,47.47
2022-10-21T20:41:41.850Z,56.83
2022-10-21T20:44:13.151Z,49.58
2022-10-21T20:46:41.178Z,46.50
2022-10-21T20:49:09.805Z,50.80
2022-10-21T20:51:42.150Z,42.33
2022-10-21T20:54:14.302Z,51.42
2022-10-21T20:56:43.647Z,54.58
2022-10-21T20:59:15.202Z,44.47
2022-10-21T21:01:45.602Z,50.25
2022-10-21T21:04:15.848Z,53.47
2022-10-21T21:06:46.882Z,49.45
2022-10-21T21:12:04.975Z,51.90
2022-10-21T21:14:33.469Z,50.03
2022-10-21T21:17:01.592Z,52.33
2022-10-21T21:19:29.669Z,51.10
2022-10-21T21:21:59.105Z,49.97
2022-10-21T21:24:27.446Z,57.88
2022-10-21T21:26:56.070Z,51.53
2022-10-21T21:29:24.671Z,57.63
2022-10-21T21:31:53.066Z,50.65
2022-10-21T21:34:21.098Z,55.47
2022-10-21T21:36:49.138Z,50.60
2022-10-21T21:39:18.642Z,46.90
2022-10-21T21:41:46.737Z,53.50
2022-10-21T21:44:14.822Z,59.55
2022-10-21T21:46:42.907Z,54.20
2022-10-21T21:49:10.993Z,52.20
2022-10-21T21:51:39.245Z,51.17
2022-10-21T21:54:08.464Z,59.88
2022-10-21T21:56:37.965Z,51.00
2022-10-21T21:59:06.137Z,60.50
2022-10-21T22:01:34.374Z,57.42
2022-10-21T22:04:02.840Z,57.45
2022-10-21T22:06:33.068Z,61.05
2022-10-21T22:09:02.011Z,50.03
2022-10-21T22:11:32.974Z,59.17
2022-10-21T22:14:02.906Z,52.22
2022-10-21T22:16:31.297Z,53.72
2022-10-21T22:19:01.824Z,50.58
2022-10-21T22:21:31.521Z,56.53
2022-10-21T22:24:00.317Z,54.58
2022-10-21T22:26:29.869Z,51.28
2022-10-21T22:28:57.998Z,56.58
2022-10-21T22:31:30.479Z,51.10
2022-10-21T22:34:01.317Z,60.05
2022-10-21T22:36:29.585Z,54.90
2022-10-21T22:38:57.904Z,52.85
2022-10-21T22:41:26.451Z,45.88
2022-10-21T22:43:54.597Z,48.65
2022-10-21T22:46:34.212Z,52.92
2022-10-21T22:49:05.148Z,51.72
2022-10-21T22:51:33.840Z,60.05
2022-10-21T22:54:02.006Z,54.42
2022-10-21T22:56:30.529Z,50.08
2022-10-21T22:58:58.808Z,48.70
2022-10-21T23:01:30.223Z,51.53
2022-10-21T23:04:02.541Z,56.42
2022-10-21T23:06:32.636Z,55.08
2022-10-21T23:09:01.345Z,46.55
2022-10-21T23:11:30.146Z,46.88
2022-10-21T23:14:03.270Z,52.83
2022-10-21T23:16:36.267Z,51.80
2022-10-21T23:19:04.753Z,44.80
2022-10-21T23:21:34.289Z,52.58
2022-10-21T23:24:02.321Z,49.33
2022-10-21T23:26:30.691Z,51.50
2022-10-21T23:28:58.712Z,53.40
2022-10-21T23:31:27.077Z,54.67
2022-10-21T23:33:55.217Z,47.33
2022-10-21T23:36:23.582Z,50.15
2022-10-21T23:38:56.882Z,51.63
2022-10-21T23:41:25.362Z,56.63
2022-10-21T23:43:53.756Z,54.97
2022-10-21T23:46:21.998Z,53.88
2022-10-21T23:48:50.161Z,57.60
2022-10-21T23:51:18.284Z,52.65
2022-10-21T23:53:46.329Z,52.10
2022-10-21T23:56:16.059Z,51.67
2022-10-21T23:58:44.073Z,51.63
